Time;durP1;ratioP1;P1;durP2;ratioP2;P2;SDS_P1;SDS_P2;PMS_P1;PMS_P2;Temp;Humidity;BMP_temperature;BMP_pressure;BME280_temperature;BME280_humidity;BME280_pressure;Samples;Min_cycle;Max_cycle;Signal;HPM_P1;HPM_P2
2021/06/04 00:01:09;;;;;;;14.32;13.23;;;16.80;99.90;;;;;;5090998;28;20499;-72
2021/06/04 00:03:35;;;;;;;14.63;13.52;;;16.80;99.90;;;;;;5091005;28;20477;-72
2021/06/04 00:06:02;;;;;;;15.93;14.63;;;16.80;99.90;;;;;;5072940;28;20419;-72
2021/06/04 00:08:28;;;;;;;15.93;14.65;;;16.80;99.90;;;;;;5090844;28;20115;-72
2021/06/04 00:11:28;;;;;;;17.17;15.77;;;16.80;99.90;;;;;;5090751;28;20256;-72
2021/06/04 00:14:02;;;;;;;17.63;16.25;;;16.80;99.90;;;;;;5079554;28;20044;-72
2021/06/04 00:16:36;;;;;;;21.98;19.98;;;16.80;99.90;;;;;;5090789;28;20044;-72
2021/06/04 00:19:13;;;;;;;24.90;22.90;;;16.80;99.90;;;;;;5090913;28;20040;-72
2021/06/04 00:21:43;;;;;;;29.27;26.77;;;16.80;99.90;;;;;;5090735;28;20052;-72
2021/06/04 00:24:11;;;;;;;29.00;26.50;;;16.90;99.90;;;;;;5090517;28;20032;-72
2021/06/04 00:26:38;;;;;;;29.95;27.35;;;16.90;99.90;;;;;;5090583;28;20035;-72
2021/06/04 00:29:04;;;;;;;28.83;26.23;;;16.90;99.90;;;;;;5090492;28;20046;-72
2021/06/04 00:31:30;;;;;;;25.23;23.08;;;16.90;99.90;;;;;;5072584;28;20036;-72
2021/06/04 00:33:56;;;;;;;21.15;19.42;;;16.90;99.90;;;;;;5090482;28;20036;-71
2021/06/04 00:36:24;;;;;;;19.95;18.33;;;16.90;99.90;;;;;;5090392;28;20046;-72
2021/06/04 00:38:50;;;;;;;19.48;17.98;;;16.80;99.90;;;;;;5090334;28;20048;-73
2021/06/04 00:41:22;;;;;;;19.85;18.35;;;16.80;99.90;;;;;;5090447;28;20071;-72
2021/06/04 00:43:49;;;;;;;20.50;18.88;;;16.80;99.90;;;;;;5090403;28;20517;-72
2021/06/04 00:46:15;;;;;;;21.40;19.63;;;16.80;99.90;;;;;;5090441;28;20043;-72
2021/06/04 00:48:41;;;;;;;19.73;18.15;;;16.80;99.90;;;;;;5090523;28;20085;-72
2021/06/04 00:51:14;;;;;;;21.27;19.58;;;16.80;99.90;;;;;;5090319;28;20474;-72
2021/06/04 00:53:41;;;;;;;21.67;19.67;;;16.80;99.90;;;;;;5090334;28;20077;-72
2021/06/04 00:56:07;;;;;;;20.40;18.70;;;16.80;99.90;;;;;;5072283;28;20036;-72
2021/06/04 00:58:39;;;;;;;21.75;19.88;;;16.70;99.90;;;;;;5090256;28;20040;-73
2021/06/04 01:01:06;;;;;;;19.70;17.65;;;16.70;99.90;;;;;;5090394;28;20093;-72
2021/06/04 01:03:36;;;;;;;16.88;15.63;;;16.70;99.90;;;;;;5090129;28;20393;-72
2021/06/04 01:06:26;;;;;;;16.52;15.32;;;16.70;99.90;;;;;;5090232;28;20036;-72
2021/06/04 01:09:25;;;;;;;19.08;17.58;;;16.70;99.90;;;;;;5090049;28;20496;-72
2021/06/04 01:12:05;;;;;;;20.20;18.45;;;16.70;99.90;;;;;;5094188;28;20067;-73
2021/06/04 01:14:50;;;;;;;21.08;19.38;;;16.60;99.90;;;;;;5093927;28;20600;-72
2021/06/04 01:17:51;;;;;;;19.98;18.08;;;16.50;99.90;;;;;;5076081;28;20058;-72
2021/06/04 01:20:32;;;;;;;23.10;21.13;;;16.50;99.90;;;;;;5093958;28;20040;-72
2021/06/04 01:23:11;;;;;;;;;;;16.50;99.90;;;;;;5076506;28;20048;-72
2021/06/04 01:25:43;;;;;;;22.20;20.23;;;16.50;99.90;;;;;;5075910;28;19920;-72
2021/06/04 01:28:18;;;;;;;21.92;19.92;;;16.40;99.90;;;;;;5093930;28;20427;-72
2021/06/04 01:30:59;;;;;;;24.63;22.33;;;16.50;99.90;;;;;;5093673;28;20111;-73
2021/06/04 01:33:40;;;;;;;24.70;22.52;;;16.50;99.90;;;;;;5093938;28;20036;-72
2021/06/04 01:36:07;;;;;;;24.30;22.10;;;16.50;99.90;;;;;;5093674;28;20040;-72
2021/06/04 01:38:39;;;;;;;26.25;23.75;;;16.50;99.90;;;;;;5093756;28;20039;-72
2021/06/04 01:41:09;;;;;;;24.45;22.42;;;16.50;99.90;;;;;;5093660;28;20036;-72
2021/06/04 01:43:46;;;;;;;22.85;21.05;;;16.40;99.90;;;;;;5093673;28;20040;-72
2021/06/04 01:46:26;;;;;;;25.25;22.83;;;16.40;99.90;;;;;;5093485;28;20401;-72
2021/06/04 01:48:53;;;;;;;26.45;24.10;;;16.40;99.90;;;;;;5093524;28;20040;-72
2021/06/04 01:51:34;;;;;;;25.02;22.73;;;16.40;99.90;;;;;;5093473;28;20596;-72
2021/06/04 01:54:09;;;;;;;27.08;24.67;;;16.40;99.90;;;;;;5093351;28;20032;-72
2021/06/04 01:56:40;;;;;;;25.43;23.07;;;16.40;99.90;;;;;;5093391;28;20040;-71
2021/06/04 01:59:21;;;;;;;31.25;28.38;;;16.40;99.90;;;;;;5093271;28;20039;-72
2021/06/04 02:01:49;;;;;;;30.73;27.63;;;16.40;99.90;;;;;;5075030;28;20397;-72
2021/06/04 02:04:22;;;;;;;32.58;29.63;;;16.40;99.90;;;;;;5092994;28;20473;-71
2021/06/04 02:06:49;;;;;;;32.53;29.67;;;16.40;99.90;;;;;;5093200;28;20497;-71
2021/06/04 02:09:17;;;;;;;33.30;30.20;;;16.30;99.90;;;;;;5092859;28;20135;-71
2021/06/04 02:11:43;;;;;;;31.00;28.25;;;16.30;99.90;;;;;;5093131;28;20470;-71
2021/06/04 02:14:16;;;;;;;34.05;30.90;;;16.40;99.90;;;;;;5092989;28;20047;-71
2021/06/04 02:17:07;;;;;;;32.58;29.38;;;16.40;99.90;;;;;;5092973;28;20473;-72
2021/06/04 02:19:51;;;;;;;31.27;28.48;;;16.30;99.90;;;;;;5092911;28;20122;-72
2021/06/04 02:22:39;;;;;;;32.40;29.42;;;16.30;99.90;;;;;;5091630;28;20093;-71
2021/06/04 02:25:13;;;;;;;34.15;30.95;;;16.30;99.90;;;;;;5092971;28;20048;-71
2021/06/04 02:27:49;;;;;;;34.35;31.15;;;16.30;99.90;;;;;;5092751;28;20093;-71
2021/06/04 02:30:35;;;;;;;31.58;28.65;;;16.40;99.90;;;;;;5092594;28;20115;-72
2021/06/04 02:33:18;;;;;;;31.42;28.42;;;16.40;99.90;;;;;;5092662;28;20043;-71
2021/06/04 02:35:57;;;;;;;32.63;29.58;;;16.40;99.90;;;;;;5074456;28;20154;-72
2021/06/04 02:38:41;;;;;;;30.30;27.52;;;16.40;99.90;;;;;;5092612;28;20040;-72
2021/06/04 02:41:14;;;;;;;32.67;29.63;;;16.40;99.90;;;;;;5092798;28;20035;-72
2021/06/04 02:44:10;;;;;;;31.40;28.65;;;16.40;99.90;;;;;;5092495;28;20044;-72
2021/06/04 02:46:43;;;;;;;24.38;22.30;;;16.40;99.90;;;;;;5092635;28;20048;-71
2021/06/04 02:49:11;;;;;;;23.17;21.17;;;16.40;99.90;;;;;;5092321;28;20040;-73
2021/06/04 02:51:49;;;;;;;23.00;21.00;;;16.30;99.90;;;;;;5092636;28;20039;-72
2021/06/04 02:54:19;;;;;;;21.90;20.05;;;16.30;99.90;;;;;;5092160;28;20083;-72
2021/06/04 02:56:48;;;;;;;22.48;20.48;;;16.20;99.90;;;;;;5073919;28;20044;-73
2021/06/04 02:59:23;;;;;;;22.50;20.60;;;16.20;99.90;;;;;;5092106;28;20173;-72
2021/06/04 03:01:54;;;;;;;22.92;20.73;;;16.20;99.90;;;;;;5092318;28;20032;-72
2021/06/04 03:04:21;;;;;;;25.50;23.35;;;16.30;99.90;;;;;;5092113;28;20478;-72
2021/06/04 03:06:51;;;;;;;26.60;24.20;;;16.10;99.90;;;;;;5091884;28;20439;-72
2021/06/04 03:09:22;;;;;;;29.65;26.60;;;16.00;99.90;;;;;;5092274;28;20084;-72
2021/06/04 03:11:49;;;;;;;26.55;23.88;;;16.00;99.90;;;;;;5091747;28;20093;-72
2021/06/04 03:14:17;;;;;;;26.85;24.05;;;15.90;99.90;;;;;;5091718;28;20111;-71
2021/06/04 03:16:43;;;;;;;26.83;24.42;;;15.80;99.90;;;;;;5091386;28;20059;-71
2021/06/04 03:19:12;;;;;;;25.27;22.75;;;15.90;99.90;;;;;;5091365;28;20068;-71
2021/06/04 03:21:46;;;;;;;23.48;21.55;;;15.90;99.90;;;;;;5090955;28;20474;-71
2021/06/04 03:24:15;;;;;;;23.42;21.48;;;15.90;99.90;;;;;;5091325;28;20153;-72
2021/06/04 03:26:42;;;;;;;25.42;23.05;;;15.90;99.90;;;;;;5091518;28;20040;-72
2021/06/04 03:29:13;;;;;;;25.60;23.50;;;16.00;99.90;;;;;;5091504;28;20382;-72
2021/06/04 03:31:44;;;;;;;25.95;23.77;;;15.90;99.90;;;;;;5091440;28;20086;-72
2021/06/04 03:34:11;;;;;;;23.08;21.17;;;15.90;99.90;;;;;;5091108;28;20118;-71
2021/06/04 03:36:41;;;;;;;22.80;20.90;;;16.00;99.90;;;;;;5091208;28;20066;-71
2021/06/04 03:39:13;;;;;;;23.73;21.63;;;16.00;99.90;;;;;;5091380;28;20040;-71
2021/06/04 03:41:40;;;;;;;28.33;25.48;;;16.10;99.90;;;;;;5091239;28;20438;-72
2021/06/04 03:44:09;;;;;;;24.42;22.33;;;16.10;99.90;;;;;;5072977;28;20086;-72
2021/06/04 03:46:38;;;;;;;;;;;16.20;99.90;;;;;;5091580;28;20485;-71
2021/06/04 03:49:04;;;;;;;23.27;21.38;;;16.20;99.90;;;;;;5091195;28;19916;-72
2021/06/04 03:51:34;;;;;;;25.67;23.48;;;16.20;99.90;;;;;;5072835;28;20036;-71
2021/06/04 03:53:59;;;;;;;24.95;22.77;;;16.20;99.90;;;;;;5091159;28;20436;-71
2021/06/04 03:56:26;;;;;;;25.45;23.33;;;16.30;99.90;;;;;;5091318;28;20047;-72
2021/06/04 03:58:54;;;;;;;25.50;23.20;;;16.30;99.90;;;;;;5090916;28;20043;-72
2021/06/04 04:01:29;;;;;;;26.92;24.50;;;16.30;99.90;;;;;;5090833;28;20040;-72
2021/06/04 04:03:56;;;;;;;26.13;23.83;;;16.30;99.90;;;;;;5090825;28;20061;-72
2021/06/04 04:06:22;;;;;;;28.25;25.85;;;16.30;99.90;;;;;;5090796;28;20036;-71
2021/06/04 04:08:48;;;;;;;28.25;25.55;;;16.30;99.90;;;;;;5072599;28;20032;-72
2021/06/04 04:11:13;;;;;;;29.20;26.40;;;16.40;99.90;;;;;;5090733;28;20047;-72
2021/06/04 04:13:39;;;;;;;32.50;29.27;;;16.40;99.90;;;;;;5090713;28;20078;-72
2021/06/04 04:16:07;;;;;;;37.28;33.67;;;16.50;99.90;;;;;;5090631;28;20059;-72
2021/06/04 04:18:33;;;;;;;27.70;25.13;;;16.60;99.90;;;;;;5090555;28;20055;-72
2021/06/04 04:21:05;;;;;;;33.60;30.48;;;16.60;99.90;;;;;;5090565;28;20144;-73
2021/06/04 04:23:56;;;;;;;33.47;30.45;;;16.70;99.90;;;;;;5090514;28;20043;-72
2021/06/04 04:26:31;;;;;;;30.33;27.63;;;16.70;99.90;;;;;;5089963;28;20059;-72
2021/06/04 04:28:57;;;;;;;27.17;24.75;;;16.80;99.90;;;;;;5072567;28;20040;-72
2021/06/04 04:31:30;;;;;;;25.85;23.55;;;16.80;99.90;;;;;;5090421;28;20032;-72
2021/06/04 04:33:57;;;;;;;29.90;27.23;;;16.80;99.90;;;;;;5072436;28;20036;-71
2021/06/04 04:36:40;;;;;;;27.73;25.42;;;16.80;99.90;;;;;;5090663;28;20028;-72
2021/06/04 04:39:10;;;;;;;28.20;25.70;;;16.80;99.90;;;;;;5090333;28;20055;-72
2021/06/04 04:41:37;;;;;;;26.50;24.02;;;16.80;99.90;;;;;;5090353;28;20123;-72
2021/06/04 04:44:04;;;;;;;29.08;26.40;;;16.90;99.90;;;;;;5090161;28;20044;-72
2021/06/04 04:46:30;;;;;;;30.30;27.70;;;16.90;99.90;;;;;;5094609;28;20101;-72
2021/06/04 04:48:56;;;;;;;30.48;27.63;;;16.90;99.90;;;;;;5076351;28;20485;-71
2021/06/04 04:51:23;;;;;;;29.90;27.20;;;16.90;99.90;;;;;;5094717;28;20061;-72
2021/06/04 04:53:50;;;;;;;30.27;27.38;;;16.90;99.90;;;;;;5076224;28;20050;-72
2021/06/04 04:56:16;;;;;;;29.48;26.65;;;17.00;99.90;;;;;;5076157;28;20517;-72
2021/06/04 04:58:41;;;;;;;38.42;34.55;;;17.00;99.90;;;;;;5094748;28;20043;-72
2021/06/04 05:01:10;;;;;;;32.83;29.63;;;17.00;99.90;;;;;;5094163;28;20071;-72
2021/06/04 05:03:36;;;;;;;37.20;33.70;;;17.10;99.90;;;;;;5094175;28;20374;-72
2021/06/04 05:06:02;;;;;;;44.03;39.38;;;17.30;99.90;;;;;;5076111;28;20097;-72
2021/06/04 05:08:28;;;;;;;74.00;47.85;;;17.40;99.90;;;;;;5076055;28;20067;-72
2021/06/04 05:10:56;;;;;;;62.97;45.03;;;17.50;99.90;;;;;;5094063;28;20484;-72
2021/06/04 05:13:21;;;;;;;47.22;42.30;;;17.60;99.90;;;;;;5075922;28;20130;-72
2021/06/04 05:15:47;;;;;;;46.83;41.83;;;17.90;99.90;;;;;;5093826;28;20119;-72
2021/06/04 05:18:14;;;;;;;45.58;40.67;;;18.10;99.90;;;;;;5094196;28;20040;-72
2021/06/04 05:20:42;;;;;;;42.42;38.33;;;18.20;99.90;;;;;;5093983;28;20047;-72
2021/06/04 05:23:07;;;;;;;41.58;37.58;;;18.30;99.90;;;;;;5093773;28;20036;-72
2021/06/04 05:25:37;;;;;;;42.08;37.95;;;18.40;99.90;;;;;;5094004;28;20532;-71
2021/06/04 05:28:04;;;;;;;41.30;37.28;;;18.50;99.90;;;;;;5094181;28;20071;-71
2021/06/04 05:30:35;;;;;;;41.05;37.15;;;18.60;99.90;;;;;;5093759;28;20138;-72
2021/06/04 05:33:00;;;;;;;40.63;36.67;;;18.70;99.90;;;;;;5094051;28;20040;-72
2021/06/04 05:35:29;;;;;;;39.47;35.65;;;18.80;99.90;;;;;;5093661;28;20478;-71
2021/06/04 05:37:56;;;;;;;40.92;37.13;;;18.90;99.90;;;;;;5093690;28;20042;-72
2021/06/04 05:40:27;;;;;;;41.03;37.10;;;18.90;99.90;;;;;;5094090;28;20081;-72
2021/06/04 05:42:52;;;;;;;40.63;36.65;;;18.90;99.90;;;;;;5093405;28;20040;-71
2021/06/04 05:45:21;;;;;;;38.83;35.22;;;18.90;99.90;;;;;;5093636;28;20040;-72
2021/06/04 05:47:48;;;;;;;39.33;35.53;;;18.90;99.90;;;;;;5093582;28;20028;-72
2021/06/04 05:50:19;;;;;;;40.30;36.40;;;18.80;99.90;;;;;;5093363;28;20039;-71
2021/06/04 05:52:45;;;;;;;41.15;37.30;;;18.80;99.90;;;;;;5093339;28;20105;-71
2021/06/04 05:55:13;;;;;;;39.25;35.65;;;18.80;99.90;;;;;;5093088;28;20040;-71
2021/06/04 05:57:39;;;;;;;42.60;38.38;;;19.50;99.90;;;;;;5093229;28;20478;-71
2021/06/04 06:00:31;;;;;;;42.08;38.03;;;20.40;99.90;;;;;;5093120;28;20078;-71
2021/06/04 06:02:58;;;;;;;40.15;36.42;;;21.30;99.90;;;;;;5075220;28;20481;-71
2021/06/04 06:05:26;;;;;;;35.35;31.90;;;21.70;99.90;;;;;;5092949;28;20499;-71
2021/06/04 06:07:53;;;;;;;39.13;35.33;;;22.00;99.90;;;;;;5093101;28;20040;-71
2021/06/04 06:10:21;;;;;;;39.97;36.17;;;22.20;99.90;;;;;;5093067;28;20048;-71
2021/06/04 06:12:47;;;;;;;38.92;35.03;;;22.70;99.90;;;;;;5093084;28;20074;-71
2021/06/04 06:15:13;;;;;;;34.67;31.27;;;23.70;99.90;;;;;;5074806;28;20048;-71
2021/06/04 06:17:39;;;;;;;38.08;34.17;;;24.30;99.90;;;;;;5074734;28;20051;-71
2021/06/04 06:20:13;;;;;;;38.95;35.15;;;24.70;99.90;;;;;;5074769;28;20443;-72
2021/06/04 06:22:39;;;;;;;35.90;32.25;;;25.20;97.60;;;;;;5092915;28;20040;-72
2021/06/04 06:25:07;;;;;;;35.35;32.00;;;25.80;98.40;;;;;;5092650;28;20169;-71
2021/06/04 06:27:34;;;;;;;36.47;32.88;;;26.40;96.80;;;;;;5092679;28;20082;-71
2021/06/04 06:29:59;;;;;;;37.40;33.55;;;26.60;96.30;;;;;;5092586;28;20385;-72
2021/06/04 06:32:26;;;;;;;37.05;33.45;;;26.80;96.40;;;;;;5092624;28;20062;-72
2021/06/04 06:34:51;;;;;;;38.20;34.13;;;26.90;96.20;;;;;;5074370;28;20486;-72
2021/06/04 06:37:18;;;;;;;37.13;33.25;;;26.90;94.40;;;;;;5092574;28;20054;-71
2021/06/04 06:39:43;;;;;;;37.00;33.40;;;27.30;96.00;;;;;;5092627;28;20043;-71
2021/06/04 06:42:10;;;;;;;37.53;33.92;;;27.10;94.50;;;;;;5092349;28;20031;-71
2021/06/04 06:44:36;;;;;;;35.10;31.63;;;26.40;94.70;;;;;;5092265;28;20058;-71
2021/06/04 06:47:02;;;;;;;36.40;32.90;;;26.90;95.60;;;;;;5092414;28;20028;-72
2021/06/04 06:49:29;;;;;;;39.58;35.22;;;27.50;93.80;;;;;;5092291;28;20070;-71
2021/06/04 06:51:55;;;;;;;37.28;33.40;;;28.10;92.40;;;;;;5092376;28;20036;-71
2021/06/04 06:54:26;;;;;;;37.17;33.38;;;28.20;90.10;;;;;;5092138;28;20474;-71
2021/06/04 06:56:54;;;;;;;35.58;31.88;;;28.30;90.10;;;;;;5092110;28;20260;-71
2021/06/04 06:59:23;;;;;;;34.58;31.08;;;28.80;86.30;;;;;;5074002;28;20460;-72
2021/06/04 07:01:50;;;;;;;30.08;26.85;;;29.40;90.10;;;;;;5091942;28;20040;-71
2021/06/04 07:04:15;;;;;;;31.67;28.58;;;29.70;89.80;;;;;;5073848;28;20032;-72
2021/06/04 07:06:42;;;;;;;33.08;29.77;;;29.70;89.30;;;;;;5091982;28;20096;-71
2021/06/04 07:09:11;;;;;;;33.00;29.60;;;30.10;86.80;;;;;;5072981;28;20058;-71
2021/06/04 07:11:39;;;;;;;32.55;29.13;;;30.30;86.40;;;;;;5073720;28;20104;-71
2021/06/04 07:14:07;;;;;;;32.53;29.33;;;30.60;87.40;;;;;;5091980;28;20036;-71
2021/06/04 07:16:34;;;;;;;31.95;28.90;;;30.40;84.60;;;;;;5091551;28;20036;-72
2021/06/04 07:19:00;;;;;;;29.10;26.27;;;30.60;80.40;;;;;;5091905;28;20121;-72
2021/06/04 07:21:27;;;;;;;31.55;28.48;;;30.60;82.00;;;;;;5091582;28;20078;-72
2021/06/04 07:23:55;;;;;;;30.30;27.40;;;30.80;80.30;;;;;;5091732;28;20519;-71
2021/06/04 07:26:27;;;;;;;30.00;27.23;;;31.00;79.50;;;;;;5091513;28;20044;-71
2021/06/04 07:29:00;;;;;;;30.63;27.42;;;30.70;75.10;;;;;;5091600;28;20055;-71
2021/06/04 07:31:26;;;;;;;33.08;29.77;;;30.60;74.60;;;;;;5091437;28;20388;-71
2021/06/04 07:33:55;;;;;;;30.10;27.27;;;30.30;75.80;;;;;;5091714;28;20036;-71
2021/06/04 07:36:29;;;;;;;31.90;28.52;;;30.10;74.10;;;;;;5091323;28;20044;-71
2021/06/04 07:38:56;;;;;;;32.17;29.15;;;29.90;72.90;;;;;;5073360;28;20040;-71
2021/06/04 07:41:23;;;;;;;29.77;26.77;;;29.70;79.60;;;;;;5091215;28;20035;-70
2021/06/04 07:43:49;;;;;;;27.58;24.92;;;29.30;82.20;;;;;;5091536;28;20139;-71
2021/06/04 07:46:18;;;;;;;29.30;26.40;;;29.00;83.40;;;;;;5091250;28;20117;-70
2021/06/04 07:48:45;;;;;;;29.58;26.70;;;29.00;81.80;;;;;;5091445;28;20040;-71
2021/06/04 07:51:18;;;;;;;28.65;25.92;;;29.40;73.00;;;;;;5091043;28;20036;-71
2021/06/04 07:53:44;;;;;;;30.25;27.15;;;29.90;81.90;;;;;;5091167;28;20521;-70
2021/06/04 07:56:14;;;;;;;28.15;25.33;;;30.20;71.50;;;;;;5072775;28;20040;-70
2021/06/04 07:58:40;;;;;;;29.85;26.85;;;30.50;75.80;;;;;;5091174;28;20048;-71
2021/06/04 08:01:06;;;;;;;28.70;25.65;;;30.50;70.60;;;;;;5091020;28;20431;-71
2021/06/04 08:03:34;;;;;;;28.90;26.08;;;30.60;73.70;;;;;;5091172;28;20062;-71
2021/06/04 08:06:01;;;;;;;27.83;25.23;;;30.40;73.80;;;;;;5090817;28;20039;-70
2021/06/04 08:08:28;;;;;;;29.92;26.58;;;29.50;69.00;;;;;;5090891;28;20039;-70
2021/06/04 08:10:54;;;;;;;30.75;27.88;;;28.80;74.20;;;;;;5090687;28;20059;-71
2021/06/04 08:13:21;;;;;;;30.25;27.25;;;28.50;75.90;;;;;;5091790;28;20044;-72
2021/06/04 08:16:02;;;;;;;29.13;26.30;;;28.20;79.60;;;;;;5090955;28;20040;-73
2021/06/04 08:18:33;;;;;;;27.35;24.63;;;27.80;79.50;;;;;;5090735;28;20028;-72
2021/06/04 08:21:05;;;;;;;28.85;26.10;;;27.70;80.50;;;;;;5090620;28;20545;-72
2021/06/04 08:23:35;;;;;;;26.98;24.58;;;27.50;82.70;;;;;;5072788;28;20047;-71
2021/06/04 08:26:04;;;;;;;29.45;26.40;;;27.30;81.60;;;;;;5090928;28;20391;-71
2021/06/04 08:28:30;;;;;;;31.52;28.17;;;27.10;80.30;;;;;;5090803;28;20118;-72
2021/06/04 08:30:57;;;;;;;32.58;29.35;;;26.80;83.20;;;;;;5072383;28;20039;-72
2021/06/04 08:33:26;;;;;;;30.88;27.65;;;26.10;84.70;;;;;;5090470;28;20040;-72
2021/06/04 08:35:52;;;;;;;29.27;26.40;;;26.10;88.90;;;;;;5090144;28;20040;-72
2021/06/04 08:38:19;;;;;;;29.83;26.77;;;26.10;88.40;;;;;;5090366;28;20501;-71
2021/06/04 08:40:46;;;;;;;29.73;26.75;;;26.10;89.00;;;;;;5072483;28;20138;-72
2021/06/04 08:43:31;;;;;;;28.48;25.42;;;26.00;88.10;;;;;;5090276;28;20067;-72
2021/06/04 08:46:11;;;;;;;31.70;28.55;;;26.00;87.60;;;;;;5090411;28;20095;-71
2021/06/04 08:48:44;;;;;;;27.40;24.55;;;25.90;89.30;;;;;;5090417;28;20421;-71
2021/06/04 08:51:19;;;;;;;32.28;28.08;;;25.90;90.50;;;;;;5090427;28;20051;-70
2021/06/04 08:53:58;;;;;;;28.73;25.90;;;25.50;89.70;;;;;;5090228;28;20036;-70
2021/06/04 08:56:34;;;;;;;30.90;27.55;;;25.60;89.00;;;;;;5072030;28;20068;-71
2021/06/04 08:59:09;;;;;;;29.13;26.33;;;25.60;90.00;;;;;;5090232;28;20138;-71
2021/06/04 09:01:35;;;;;;;31.15;27.83;;;25.70;89.30;;;;;;5090198;28;20040;-71
2021/06/04 09:04:18;;;;;;;32.22;28.75;;;25.40;88.40;;;;;;5090230;28;20055;-71
2021/06/04 09:07:09;;;;;;;32.15;28.83;;;25.60;89.70;;;;;;5090065;28;20078;-72
2021/06/04 09:09:48;;;;;;;27.55;24.67;;;25.60;90.70;;;;;;5072294;28;20056;-70
2021/06/04 09:12:24;;;;;;;31.17;28.10;;;25.70;90.10;;;;;;5072032;28;20048;-71
2021/06/04 09:14:52;;;;;;;27.35;23.90;;;25.50;90.40;;;;;;5090110;28;20056;-71
2021/06/04 09:17:39;;;;;;;30.42;25.30;;;25.60;89.40;;;;;;5089812;28;20573;-72
2021/06/04 09:20:07;;;;;;;29.85;26.85;;;25.70;88.90;;;;;;5090084;28;20131;-72
2021/06/04 09:22:42;;;;;;;28.55;25.67;;;25.50;84.80;;;;;;5089987;28;20040;-71
2021/06/04 09:25:21;;;;;;;28.02;25.20;;;25.50;88.60;;;;;;5090145;28;20121;-72
2021/06/04 09:28:08;;;;;;;23.63;21.17;;;25.60;88.40;;;;;;5090004;28;20052;-71
2021/06/04 09:30:57;;;;;;;23.63;21.08;;;25.60;89.60;;;;;;5072348;28;20099;-71
2021/06/04 09:33:30;;;;;;;23.95;21.52;;;25.70;85.80;;;;;;5093872;28;20036;-71
2021/06/04 09:36:04;;;;;;;24.40;21.90;;;25.90;86.70;;;;;;5093687;28;20477;-72
2021/06/04 09:38:38;;;;;;;19.50;17.50;;;25.90;86.50;;;;;;5093679;28;20036;-71
2021/06/04 09:41:25;;;;;;;16.95;15.43;;;25.90;85.60;;;;;;5093829;28;20040;-71
2021/06/04 09:44:17;;;;;;;19.02;17.23;;;25.70;77.00;;;;;;5093567;28;20039;-71
2021/06/04 09:46:48;;;;;;;18.55;16.85;;;25.90;83.50;;;;;;5093573;28;20047;-71
2021/06/04 09:49:26;;;;;;;19.20;16.23;;;25.90;84.10;;;;;;5093460;28;20413;-70
2021/06/04 09:51:57;;;;;;;17.48;15.80;;;25.90;81.90;;;;;;5093561;28;20040;-70
2021/06/04 09:54:30;;;;;;;17.38;15.63;;;25.80;82.90;;;;;;5075090;28;20042;-70
2021/06/04 09:57:12;;;;;;;17.52;15.85;;;25.90;81.30;;;;;;5093305;28;20596;-70
2021/06/04 09:59:39;;;;;;;18.25;16.55;;;26.00;82.30;;;;;;5093282;28;20540;-70
2021/06/04 10:02:29;;;;;;;16.60;15.05;;;26.00;84.30;;;;;;5093267;28;20047;-70
2021/06/04 10:05:12;;;;;;;18.45;16.10;;;25.90;81.00;;;;;;5075142;28;20036;-70
2021/06/04 10:07:38;;;;;;;15.98;14.27;;;25.90;80.90;;;;;;5074936;28;20181;-70
2021/06/04 10:10:32;;;;;;;17.02;15.00;;;25.90;82.70;;;;;;5093038;28;20127;-70
2021/06/04 10:13:40;;;;;;;18.02;15.93;;;26.00;79.60;;;;;;5063951;28;20040;-70
2021/06/04 10:16:47;;;;;;;19.55;17.65;;;26.00;81.80;;;;;;5092884;28;20229;-70
2021/06/04 10:19:53;;;;;;;20.88;18.60;;;26.10;80.80;;;;;;5092713;28;20039;-70
2021/06/04 10:22:39;;;;;;;20.08;18.08;;;26.10;82.60;;;;;;5092413;28;20116;-71
2021/06/04 10:25:08;;;;;;;21.88;19.67;;;26.20;82.10;;;;;;5100504;22;20125;-65
2021/06/04 10:27:40;;;;;;;21.63;19.52;;;26.40;80.20;;;;;;5092743;28;20043;-66
2021/06/04 10:30:16;;;;;;;21.88;19.63;;;26.30;80.20;;;;;;5092518;28;20048;-66
2021/06/04 10:32:53;;;;;;;22.30;20.10;;;26.30;83.60;;;;;;5092766;28;20378;-65
2021/06/04 10:35:31;;;;;;;19.55;17.42;;;26.40;81.80;;;;;;5074489;28;20032;-65
2021/06/04 10:38:03;;;;;;;18.15;16.35;;;26.50;81.10;;;;;;5092505;28;20101;-65
2021/06/04 10:40:38;;;;;;;;;;;26.60;77.50;;;;;;5092890;28;20043;-66
2021/06/04 10:43:22;;;;;;;20.50;17.48;;;26.60;79.80;;;;;;5091268;28;19969;-65
2021/06/04 10:45:59;;;;;;;20.00;17.92;;;26.60;78.80;;;;;;5074278;28;20047;-66
2021/06/04 10:48:51;;;;;;;24.27;20.52;;;26.60;77.90;;;;;;5092216;28;20044;-66
2021/06/04 10:51:57;;;;;;;19.83;17.77;;;26.60;77.70;;;;;;5092279;28;20036;-66
2021/06/04 10:54:38;;;;;;;17.05;15.35;;;26.70;79.20;;;;;;5092122;28;20048;-66
2021/06/04 10:57:08;;;;;;;16.65;14.95;;;26.70;77.80;;;;;;5092096;28;20244;-66
2021/06/04 11:00:15;;;;;;;18.20;16.35;;;26.80;78.50;;;;;;5092178;28;20148;-66
2021/06/04 11:03:07;;;;;;;19.38;17.35;;;26.60;77.10;;;;;;5029339;28;20049;-66
2021/06/04 11:06:01;;;;;;;19.90;17.80;;;26.60;74.60;;;;;;5028885;28;20183;-66
2021/06/04 11:08:45;;;;;;;20.65;18.55;;;26.40;77.20;;;;;;5083077;28;20493;-66
2021/06/04 11:11:47;;;;;;;18.85;17.02;;;26.60;78.20;;;;;;5091909;28;20366;-66
2021/06/04 11:14:13;;;;;;;;;;;26.70;79.70;;;;;;5092246;28;20408;-66
2021/06/04 11:17:08;;;;;;;21.02;18.90;;;26.80;78.90;;;;;;5091626;28;20367;-66
2021/06/04 11:19:45;;;;;;;18.88;16.83;;;26.90;78.30;;;;;;5091618;28;20442;-66
2021/06/04 11:22:32;;;;;;;15.63;14.13;;;27.00;78.10;;;;;;5073529;28;20032;-66
2021/06/04 11:25:20;;;;;;;11.48;10.27;;;26.90;72.20;;;;;;5090987;28;20459;-66
2021/06/04 11:27:51;;;;;;;12.05;10.85;;;27.00;76.40;;;;;;5090647;28;20047;-66
2021/06/04 11:30:22;;;;;;;12.85;11.07;;;27.10;72.30;;;;;;5090432;28;20038;-66
2021/06/04 11:33:05;;;;;;;12.98;11.65;;;27.00;72.90;;;;;;5090413;28;20044;-66
2021/06/04 11:35:41;;;;;;;15.52;13.40;;;27.20;76.40;;;;;;5090280;28;20040;-66
2021/06/04 11:38:17;;;;;;;12.02;9.77;;;26.80;64.30;;;;;;5090501;28;20052;-66
2021/06/04 11:40:45;;;;;;;12.52;11.35;;;27.00;74.90;;;;;;5090354;28;20039;-66
2021/06/04 11:43:13;;;;;;;15.25;10.98;;;27.10;75.10;;;;;;5090842;28;20028;-66
2021/06/04 11:45:42;;;;;;;11.57;10.15;;;27.20;73.10;;;;;;5090235;28;20593;-66
2021/06/04 11:48:20;;;;;;;9.30;8.40;;;27.20;73.80;;;;;;5090317;28;20036;-66
2021/06/04 11:50:47;;;;;;;9.25;7.40;;;27.30;73.80;;;;;;5090309;28;20067;-66
2021/06/04 11:53:34;;;;;;;9.23;6.65;;;27.30;73.70;;;;;;5072199;28;20366;-66
2021/06/04 11:56:01;;;;;;;8.00;6.78;;;26.90;61.00;;;;;;5090169;28;20036;-66
2021/06/04 11:58:30;;;;;;;9.27;8.45;;;27.00;69.50;;;;;;5090265;28;20395;-66
2021/06/04 12:01:16;;;;;;;9.75;8.73;;;26.80;59.60;;;;;;5090016;28;20040;-66
2021/06/04 12:04:12;;;;;;;9.70;7.90;;;26.90;69.10;;;;;;5082490;28;20052;-66
2021/06/04 12:06:54;;;;;;;10.70;9.43;;;27.10;72.70;;;;;;5066301;28;20052;-66
2021/06/04 12:09:31;;;;;;;11.55;8.73;;;27.20;65.40;;;;;;5090050;28;20401;-66
2021/06/04 12:12:16;;;;;;;10.23;8.68;;;27.30;73.90;;;;;;5089855;28;20115;-66
2021/06/04 12:14:54;;;;;;;12.25;10.00;;;27.50;75.30;;;;;;5090020;28;20032;-66
2021/06/04 12:17:31;;;;;;;13.85;12.45;;;27.50;72.50;;;;;;5071907;28;20574;-66
2021/06/04 12:20:35;;;;;;;15.00;12.52;;;27.40;64.50;;;;;;5089961;28;20043;-66
2021/06/04 12:23:05;;;;;;;12.80;11.13;;;27.00;67.10;;;;;;5089858;28;20032;-66
2021/06/04 12:25:48;;;;;;;14.07;11.50;;;27.30;72.50;;;;;;5088355;28;49865;-66
2021/06/04 12:28:23;;;;;;;13.07;11.77;;;27.50;72.30;;;;;;5072536;28;20047;-66
2021/06/04 12:30:51;;;;;;;12.32;11.02;;;27.20;67.50;;;;;;5090843;28;20097;-66
2021/06/04 12:33:40;;;;;;;16.52;14.13;;;27.30;73.80;;;;;;5090442;28;20050;-66
2021/06/04 12:36:31;;;;;;;12.90;10.52;;;27.20;65.80;;;;;;5090527;28;20036;-66
2021/06/04 12:39:32;;;;;;;13.70;12.20;;;27.50;74.00;;;;;;5090522;28;20055;-66
2021/06/04 12:42:17;;;;;;;15.48;13.65;;;27.50;73.10;;;;;;5090285;28;20043;-66
2021/06/04 12:45:17;;;;;;;14.20;11.60;;;27.70;69.80;;;;;;5090336;28;20048;-66
2021/06/04 12:47:51;;;;;;;12.90;11.70;;;27.70;74.20;;;;;;5090258;28;20119;-66
2021/06/04 12:50:27;;;;;;;19.38;17.48;;;27.70;69.90;;;;;;5090305;28;20036;-66
2021/06/04 12:53:10;;;;;;;18.67;16.77;;;27.20;67.00;;;;;;5090217;28;20086;-66
2021/06/04 12:55:37;;;;;;;16.13;14.43;;;27.20;66.00;;;;;;5090243;28;20036;-66
2021/06/04 12:58:30;;;;;;;20.02;17.50;;;27.40;74.20;;;;;;5090085;28;20051;-66
2021/06/04 13:01:06;;;;;;;17.67;15.98;;;27.40;66.90;;;;;;5090223;28;20028;-66